Time;durP1;ratioP1;P1;durP2;ratioP2;P2;SDS_P1;SDS_P2;PMS_P1;PMS_P2;Temp;Humidity;BMP_temperature;BMP_pressure;BME280_temperature;BME280_humidity;BME280_pressure;Samples;Min_cycle;Max_cycle;Signal;HPM_P1;HPM_P2
2023/02/13 00:00:46;;;;;;;194.70;111.93;;;;;;;-4.39;100.00;103259.00;5027600;28;20539;-78
2023/02/13 00:03:13;;;;;;;193.82;114.47;;;;;;;-4.34;100.00;103262.31;5031837;28;20049;-78
2023/02/13 00:05:40;;;;;;;174.95;100.53;;;;;;;-4.50;100.00;103254.16;5032432;28;20045;-78
2023/02/13 00:08:07;;;;;;;147.73;87.70;;;;;;;-4.53;100.00;103258.59;5028632;28;20042;-78
2023/02/13 00:10:33;;;;;;;151.75;94.78;;;;;;;-4.46;100.00;103260.09;5028091;28;20503;-78
2023/02/13 00:13:00;;;;;;;176.23;108.75;;;;;;;-4.37;100.00;103263.25;5026932;28;20073;-79
2023/02/13 00:15:28;;;;;;;159.75;99.65;;;;;;;-4.28;100.00;103262.13;5030461;28;20107;-78
2023/02/13 00:17:55;;;;;;;145.85;95.05;;;;;;;-4.33;100.00;103256.22;5032644;28;20100;-78
2023/02/13 00:20:22;;;;;;;141.38;89.95;;;;;;;-4.29;100.00;103257.84;5025735;28;20128;-78
2023/02/13 00:22:48;;;;;;;148.50;92.50;;;;;;;-4.24;100.00;103253.34;5028504;28;20054;-78
2023/02/13 00:25:15;;;;;;;173.60;96.80;;;;;;;-4.41;100.00;103260.81;5024210;28;20119;-78
2023/02/13 00:27:42;;;;;;;150.40;88.25;;;;;;;-4.03;100.00;103269.16;5026681;28;20093;-78
2023/02/13 00:30:09;;;;;;;145.30;91.90;;;;;;;-3.59;100.00;103277.25;5027889;28;20050;-78
2023/02/13 00:32:38;;;;;;;143.50;96.60;;;;;;;-3.41;100.00;103278.38;5027695;28;20072;-78
2023/02/13 00:35:05;;;;;;;152.10;97.32;;;;;;;-3.22;100.00;103263.84;5029475;28;20577;-78
2023/02/13 00:37:33;;;;;;;133.25;85.95;;;;;;;-3.28;100.00;103269.25;5025306;28;20068;-78
2023/02/13 00:40:00;;;;;;;128.48;93.53;;;;;;;-3.32;100.00;103270.28;5026154;28;20075;-79
2023/02/13 00:42:26;;;;;;;133.25;87.85;;;;;;;-3.38;100.00;103273.09;5033480;28;20049;-78
2023/02/13 00:44:54;;;;;;;126.22;81.97;;;;;;;-3.38;100.00;103275.69;5032974;28;20053;-78
2023/02/13 00:47:21;;;;;;;131.30;91.63;;;;;;;-3.24;100.00;103269.09;5028029;28;20523;-78
2023/02/13 00:49:49;;;;;;;133.65;96.53;;;;;;;-3.13;100.00;103263.50;5027201;28;20046;-78
2023/02/13 00:52:16;;;;;;;133.93;95.00;;;;;;;-3.09;100.00;103265.09;5029994;28;20061;-78
2023/02/13 00:54:42;;;;;;;142.13;90.85;;;;;;;-3.30;100.00;103263.25;5030086;28;20502;-78
2023/02/13 00:57:09;;;;;;;140.45;91.53;;;;;;;-3.35;100.00;103272.97;5028436;28;20104;-78
2023/02/13 00:59:36;;;;;;;154.60;100.35;;;;;;;-3.49;100.00;103269.09;5030507;28;20042;-78
2023/02/13 01:02:02;;;;;;;140.98;94.35;;;;;;;-3.28;100.00;103267.50;5027800;28;20076;-78
2023/02/13 01:04:29;;;;;;;142.27;89.55;;;;;;;-3.21;100.00;103268.13;5024412;28;20050;-78
2023/02/13 01:06:57;;;;;;;152.88;92.38;;;;;;;-3.44;100.00;103265.50;5026812;28;20050;-77
2023/02/13 01:09:25;;;;;;;140.88;88.95;;;;;;;-3.53;100.00;103269.25;5030361;28;20083;-78
2023/02/13 01:11:52;;;;;;;139.45;93.97;;;;;;;-3.37;100.00;103278.22;5025671;28;20109;-79
2023/02/13 01:14:18;;;;;;;155.43;93.57;;;;;;;-3.19;100.00;103276.72;5024138;28;20050;-78
2023/02/13 01:16:45;;;;;;;140.38;101.97;;;;;;;-3.19;100.00;103268.09;5024696;28;20107;-78
2023/02/13 01:19:12;;;;;;;129.25;86.85;;;;;;;-3.14;100.00;103264.44;5026966;28;20499;-78
2023/02/13 01:21:38;;;;;;;117.60;90.07;;;;;;;-3.16;100.00;103260.19;5023595;28;20112;-79
2023/02/13 01:24:07;;;;;;;125.10;79.05;;;;;;;-2.73;100.00;103256.84;5024661;28;20499;-78
2023/02/13 01:26:34;;;;;;;140.77;99.13;;;;;;;-3.03;100.00;103256.22;5029774;28;20046;-78
2023/02/13 01:29:00;;;;;;;227.18;125.28;;;;;;;-3.03;100.00;103253.63;5023850;28;20491;-78
2023/02/13 01:31:27;;;;;;;159.52;100.57;;;;;;;-3.12;100.00;103241.78;5025857;28;20041;-78
2023/02/13 01:33:57;;;;;;;189.00;101.60;;;;;;;-2.93;100.00;103252.41;5030589;28;20103;-78
2023/02/13 01:36:24;;;;;;;196.55;104.70;;;;;;;-2.94;100.00;103237.69;5024214;28;20128;-78
2023/02/13 01:38:54;;;;;;;180.43;97.93;;;;;;;-2.82;100.00;103250.22;5029511;28;20500;-78
2023/02/13 01:41:23;;;;;;;169.77;100.53;;;;;;;-2.71;100.00;103243.81;5023936;28;20133;-78
2023/02/13 01:43:52;;;;;;;150.65;91.60;;;;;;;-2.65;100.00;103247.00;5025729;28;20042;-79
2023/02/13 01:46:24;;;;;;;140.20;88.78;;;;;;;-2.76;100.00;103244.78;5028375;28;20054;-78
2023/02/13 01:48:54;;;;;;;174.45;116.95;;;;;;;-2.82;100.00;103252.00;5027655;28;20465;-78
2023/02/13 01:51:25;;;;;;;171.75;112.57;;;;;;;-2.70;100.00;103245.47;5030039;28;20132;-78
2023/02/13 01:53:56;;;;;;;172.77;102.03;;;;;;;-2.72;100.00;103250.75;5028551;28;20111;-78
2023/02/13 01:56:29;;;;;;;168.15;104.18;;;;;;;-2.70;100.00;103248.94;5028267;28;20100;-78
2023/02/13 01:59:00;;;;;;;162.02;102.82;;;;;;;-2.61;100.00;103245.13;5024220;28;20049;-78
2023/02/13 02:01:27;;;;;;;123.70;88.93;;;;;;;-2.63;100.00;103242.59;5027509;28;20069;-78
2023/02/13 02:03:58;;;;;;;141.27;86.45;;;;;;;-2.70;100.00;103248.94;5029149;28;20057;-78
2023/02/13 02:06:30;;;;;;;147.05;93.30;;;;;;;-2.67;100.00;103246.22;5019851;28;20050;-78
2023/02/13 02:09:08;;;;;;;142.60;87.68;;;;;;;-2.59;100.00;103251.13;5030950;28;20053;-78
2023/02/13 02:11:42;;;;;;;122.95;81.70;;;;;;;-2.47;100.00;103261.09;5029793;28;20045;-78
2023/02/13 02:14:09;;;;;;;105.07;90.85;;;;;;;-2.34;100.00;103262.28;5029995;28;20079;-80
2023/02/13 02:16:36;;;;;;;111.30;86.55;;;;;;;-2.36;100.00;103251.09;5024670;28;20103;-77
2023/02/13 02:19:06;;;;;;;119.85;89.20;;;;;;;-2.34;100.00;103251.03;5026453;28;20049;-78
2023/02/13 02:22:19;;;;;;;136.30;94.82;;;;;;;-2.17;100.00;103248.63;5026160;28;20079;-78
2023/02/13 02:25:37;;;;;;;114.72;85.70;;;;;;;-2.33;100.00;103252.72;5019411;28;20050;-78
2023/02/13 02:28:29;;;;;;;96.45;74.82;;;;;;;-2.32;100.00;103249.22;5019985;28;20046;-78
2023/02/13 02:31:14;;;;;;;;;;;;;;;-2.35;100.00;103247.59;5025248;28;20050;-78
2023/02/13 02:33:56;;;;;;;106.07;88.90;;;;;;;-2.48;100.00;103243.78;5033331;28;19929;-78
2023/02/13 02:36:37;;;;;;;104.53;81.85;;;;;;;-2.49;100.00;103243.81;5032453;28;20045;-79
2023/02/13 02:39:13;;;;;;;103.35;91.50;;;;;;;-2.38;100.00;103255.50;5025854;28;20054;-78
2023/02/13 02:41:58;;;;;;;95.95;76.63;;;;;;;-2.29;100.00;103249.09;5028006;28;20533;-78
2023/02/13 02:44:36;;;;;;;103.13;86.53;;;;;;;-2.29;100.00;103251.72;5026986;28;20100;-78
2023/02/13 02:50:13;;;;;;;101.53;90.45;;;;;;;-2.35;100.00;103246.75;5025139;28;20060;-78
2023/02/13 02:52:45;;;;;;;84.78;72.93;;;;;;;-2.39;100.00;103242.53;5026859;28;20058;-78
2023/02/13 02:55:27;;;;;;;82.05;69.05;;;;;;;-2.63;100.00;103237.41;5029557;28;20052;-78
2023/02/13 03:07:19;;;;;;;110.72;84.45;;;;;;;-2.71;100.00;103242.03;4950299;29;20054;-81
2023/02/13 03:13:34;;;;;;;113.57;82.88;;;;;;;-2.72;100.00;103242.09;5013804;28;20052;-83
2023/02/13 03:22:41;;;;;;;83.10;65.10;;;;;;;-2.76;100.00;103244.78;5004392;28;20081;-81
2023/02/13 03:25:33;;;;;;;92.07;69.65;;;;;;;-2.79;100.00;103244.06;5007234;28;20042;-81
2023/02/13 03:31:34;;;;;;;85.25;70.28;;;;;;;-3.15;100.00;103239.31;5015485;28;20053;-82
2023/02/13 03:40:11;;;;;;;89.78;74.95;;;;;;;-3.25;100.00;103243.16;5015415;28;20053;-81
2023/02/13 03:43:05;;;;;;;86.28;64.55;;;;;;;-3.40;100.00;103241.94;5011056;28;20041;-83
2023/02/13 03:46:13;;;;;;;77.10;60.65;;;;;;;-3.44;100.00;103248.16;5015840;28;20496;-83
2023/02/13 03:52:01;;;;;;;75.32;60.17;;;;;;;-3.13;100.00;103253.09;4995782;28;20111;-81
2023/02/13 04:00:41;;;;;;;62.70;48.88;;;;;;;-3.81;100.00;103243.34;5015551;28;20052;-81
2023/02/13 04:03:21;;;;;;;70.45;56.13;;;;;;;-3.67;100.00;103246.31;4994148;28;20047;-81
2023/02/13 04:05:57;;;;;;;66.05;53.35;;;;;;;-4.04;100.00;103250.13;4995271;28;20120;-82
2023/02/13 04:08:33;;;;;;;62.50;49.33;;;;;;;-3.98;100.00;103246.50;4993926;28;20158;-83
2023/02/13 04:11:14;;;;;;;66.00;58.03;;;;;;;-3.84;100.00;103241.72;4994239;28;20050;-81
2023/02/13 04:14:23;;;;;;;68.20;56.75;;;;;;;-3.79;100.00;103250.19;4991335;28;20085;-81
2023/02/13 04:17:05;;;;;;;76.20;63.58;;;;;;;-3.95;100.00;103241.19;4984216;28;20228;-81
2023/02/13 04:19:41;;;;;;;81.00;72.55;;;;;;;-4.16;100.00;103245.34;4975592;28;20517;-83
2023/02/13 04:22:20;;;;;;;76.97;60.90;;;;;;;-4.09;100.00;103240.78;4979002;28;20051;-83
2023/02/13 04:25:05;;;;;;;71.00;56.33;;;;;;;-3.76;100.00;103238.84;4995169;28;20457;-82
2023/02/13 04:27:38;;;;;;;75.18;56.63;;;;;;;-4.14;100.00;103248.75;4995126;28;20050;-81
2023/02/13 04:30:10;;;;;;;73.88;59.78;;;;;;;-4.37;100.00;103236.47;4995404;28;20421;-81
2023/02/13 04:35:34;;;;;;;68.07;55.00;;;;;;;-4.27;100.00;103247.41;4978033;28;20082;-83
2023/02/13 04:38:04;;;;;;;69.03;53.97;;;;;;;-4.33;100.00;103250.19;4994876;28;20054;-81
2023/02/13 04:40:35;;;;;;;70.13;55.75;;;;;;;-4.35;100.00;103245.06;4985333;28;20050;-83
2023/02/13 04:43:31;;;;;;;84.43;66.38;;;;;;;-4.46;100.00;103255.75;4991784;28;20050;-82
2023/02/13 04:46:17;;;;;;;69.82;57.90;;;;;;;-4.58;100.00;103257.88;4899488;29;20517;-83
2023/02/13 04:48:51;;;;;;;61.45;51.85;;;;;;;-4.62;100.00;103254.53;4915909;29;20079;-83
2023/02/13 04:54:13;;;;;;;56.83;48.33;;;;;;;-4.75;100.00;103251.47;4911722;29;20104;-82
2023/02/13 04:57:24;;;;;;;63.75;53.67;;;;;;;-4.65;100.00;103252.03;4970399;28;20426;-82
2023/02/13 05:00:20;;;;;;;72.35;58.03;;;;;;;-4.81;100.00;103259.41;4995096;28;20395;-82
2023/02/13 05:03:04;;;;;;;71.90;58.55;;;;;;;-4.93;100.00;103254.53;5010837;28;20133;-82
2023/02/13 05:05:36;;;;;;;85.97;66.18;;;;;;;-4.99;100.00;103267.69;5014076;28;20125;-82
2023/02/13 05:08:09;;;;;;;97.13;67.03;;;;;;;-4.99;100.00;103260.78;5014037;28;20089;-82
2023/02/13 05:10:54;;;;;;;100.43;70.68;;;;;;;-4.97;100.00;103268.50;5012693;28;20421;-83
2023/02/13 05:13:37;;;;;;;94.35;64.60;;;;;;;-4.89;100.00;103276.91;5013444;28;20054;-82
2023/02/13 05:16:07;;;;;;;71.32;52.35;;;;;;;-4.96;100.00;103278.84;5013737;28;20465;-82
2023/02/13 05:18:41;;;;;;;65.72;49.15;;;;;;;-5.01;100.00;103262.56;5012883;28;20434;-82
2023/02/13 05:24:16;;;;;;;64.07;44.70;;;;;;;-4.85;100.00;103278.53;5031902;28;20180;-82
2023/02/13 05:26:52;;;;;;;63.38;47.42;;;;;;;-5.00;100.00;103276.34;5031954;28;20299;-82
2023/02/13 05:32:22;;;;;;;57.15;44.70;;;;;;;-4.88;100.00;103294.16;5032734;28;20057;-82
2023/02/13 05:35:10;;;;;;;55.03;43.05;;;;;;;-5.01;100.00;103304.03;5033070;28;20085;-82
2023/02/13 05:37:50;;;;;;;58.50;43.17;;;;;;;-5.02;100.00;103291.97;5029891;28;20045;-83
2023/02/13 05:40:29;;;;;;;52.03;39.53;;;;;;;-5.10;100.00;103299.94;5023487;28;20053;-83
2023/02/13 05:43:06;;;;;;;52.53;43.22;;;;;;;-5.07;100.00;103310.22;5032983;28;20048;-82
2023/02/13 05:45:51;;;;;;;54.15;44.17;;;;;;;-5.04;100.00;103309.28;5033015;28;20099;-83
2023/02/13 05:48:28;;;;;;;68.47;53.08;;;;;;;-5.01;100.00;103309.22;5033204;28;20454;-82
2023/02/13 05:51:14;;;;;;;94.65;65.72;;;;;;;-5.05;100.00;103299.84;5032618;28;20084;-83
2023/02/13 05:54:12;;;;;;;162.35;96.05;;;;;;;-4.79;100.00;103301.69;5028714;28;20048;-83
2023/02/13 05:56:54;;;;;;;164.82;86.85;;;;;;;-4.75;100.00;103307.63;5032254;28;20048;-82
2023/02/13 05:59:41;;;;;;;128.93;80.38;;;;;;;-4.62;100.00;103301.22;5032283;28;20084;-82
2023/02/13 06:02:19;;;;;;;217.23;121.07;;;;;;;-4.60;100.00;103302.00;5022550;28;20141;-82
2023/02/13 06:05:00;;;;;;;215.95;121.75;;;;;;;-4.44;100.00;103302.44;5032764;28;20046;-82
2023/02/13 06:07:36;;;;;;;216.32;122.47;;;;;;;-4.28;100.00;103313.19;5031587;28;20072;-82
2023/02/13 06:10:15;;;;;;;164.02;100.93;;;;;;;-4.26;100.00;103312.25;5031902;28;20057;-82
2023/02/13 06:12:51;;;;;;;131.90;94.47;;;;;;;-4.00;100.00;103321.81;5020874;28;20064;-82
2023/02/13 06:15:30;;;;;;;108.53;81.13;;;;;;;-3.66;100.00;103317.31;5032486;28;20045;-83
2023/02/13 06:18:02;;;;;;;101.25;70.55;;;;;;;-3.52;100.00;103325.50;5030149;28;20056;-83
2023/02/13 06:20:42;;;;;;;104.97;72.70;;;;;;;-3.25;100.00;103314.19;5031330;28;20073;-83
2023/02/13 06:23:23;;;;;;;104.20;72.18;;;;;;;-2.88;100.00;103319.84;5030459;28;20056;-83
2023/02/13 06:26:05;;;;;;;95.30;75.93;;;;;;;-2.47;100.00;103313.13;4962966;28;20107;-83
2023/02/13 06:28:53;;;;;;;77.00;58.23;;;;;;;-2.16;100.00;103309.34;5018704;28;20041;-83
2023/02/13 06:31:25;;;;;;;62.17;52.15;;;;;;;-1.91;100.00;103307.47;5031135;28;20302;-83
2023/02/13 06:34:01;;;;;;;49.17;43.87;;;;;;;-1.75;100.00;103304.28;5028585;28;20053;-82
2023/02/13 06:36:48;;;;;;;44.85;40.28;;;;;;;-1.43;100.00;103308.13;5031685;28;20510;-82
2023/02/13 06:42:56;;;;;;;47.17;42.42;;;;;;;-0.75;100.00;103306.06;5031188;28;20119;-83
2023/02/13 06:46:04;;;;;;;47.58;42.92;;;;;;;-0.63;100.00;103300.28;5033741;28;20109;-81
2023/02/13 06:48:43;;;;;;;55.35;45.75;;;;;;;-0.33;100.00;103294.59;5015961;28;20057;-81
2023/02/13 06:51:20;;;;;;;50.97;42.60;;;;;;;-0.21;100.00;103296.63;5035251;28;20455;-82
2023/02/13 06:54:25;;;;;;;48.30;42.75;;;;;;;0.84;100.00;103293.13;5034907;28;20107;-82
2023/02/13 06:57:11;;;;;;;48.47;40.13;;;;;;;0.48;100.00;103293.22;5035728;28;20428;-82
2023/02/13 07:03:40;;;;;;;46.35;41.50;;;;;;;1.08;100.00;103279.69;5019719;28;20044;-82
2023/02/13 07:06:33;;;;;;;44.10;37.35;;;;;;;1.33;100.00;103276.59;5030656;28;20053;-81
2023/02/13 07:09:03;;;;;;;;;;;;;;;1.40;100.00;103275.34;5035819;28;20079;-82
2023/02/13 07:12:14;;;;;;;51.33;39.47;;;;;;;1.49;100.00;103264.38;5034137;28;19921;-81
2023/02/13 07:14:51;;;;;;;47.67;38.83;;;;;;;2.22;100.00;103266.41;5016010;28;20060;-80
2023/02/13 07:17:30;;;;;;;48.42;36.35;;;;;;;2.46;100.00;103270.19;5024520;28;20046;-82
2023/02/13 07:20:15;;;;;;;49.25;36.80;;;;;;;2.15;100.00;103270.28;5035381;28;20449;-81
2023/02/13 07:22:49;;;;;;;51.83;36.67;;;;;;;3.20;100.00;103252.59;5034490;28;20051;-82
2023/02/13 08:30:08;;;;;;;28.65;26.25;;;;;;;8.39;78.04;103218.00;4913512;29;20119;-81
2023/02/13 08:32:37;;;;;;;26.73;24.38;;;;;;;8.05;75.70;103212.88;4933553;29;20058;-81
2023/02/13 08:35:12;;;;;;;28.20;26.00;;;;;;;8.70;73.89;103213.56;4991121;28;20048;-81
2023/02/13 08:37:46;;;;;;;30.77;28.35;;;;;;;8.42;64.58;103215.09;5028047;28;20060;-83
2023/02/13 08:40:51;;;;;;;32.60;29.90;;;;;;;8.07;64.17;103213.56;5021752;28;20054;-83
2023/02/13 08:43:39;;;;;;;32.35;29.80;;;;;;;8.31;63.87;103212.47;5014021;28;20483;-83
2023/02/13 08:46:26;;;;;;;34.33;31.63;;;;;;;8.67;62.17;103212.00;5014422;28;20713;-83
2023/02/13 08:49:18;;;;;;;35.90;32.90;;;;;;;8.45;67.73;103209.53;5013472;28;20080;-83
2023/02/13 08:54:55;;;;;;;28.55;25.90;;;;;;;8.64;63.48;103195.53;4992981;28;20047;-83
2023/02/13 08:57:45;;;;;;;29.88;27.20;;;;;;;8.55;61.97;103198.97;4993920;28;20149;-83
2023/02/13 09:01:03;;;;;;;32.28;29.50;;;;;;;9.28;63.92;103204.94;5006642;28;20165;-83
2023/02/13 09:03:40;;;;;;;31.20;28.50;;;;;;;8.58;61.38;103194.25;5014002;28;20133;-83
2023/02/13 09:06:34;;;;;;;30.45;27.92;;;;;;;7.82;66.63;103198.06;5029771;28;20493;-83
2023/02/13 09:09:09;;;;;;;29.85;27.65;;;;;;;8.64;66.13;103193.72;5005122;28;20057;-82
2023/02/13 09:11:55;;;;;;;30.75;28.23;;;;;;;8.70;64.35;103198.47;5029492;28;20059;-81
2023/02/13 09:14:45;;;;;;;30.90;28.45;;;;;;;6.77;70.61;103193.25;5003209;28;20050;-80
2023/02/13 09:17:28;;;;;;;31.02;28.42;;;;;;;9.34;66.60;103191.13;5014857;28;20059;-80
2023/02/13 09:20:07;;;;;;;29.58;26.80;;;;;;;8.62;65.51;103184.22;5005078;28;20046;-82
2023/02/13 09:22:51;;;;;;;30.23;27.73;;;;;;;8.52;72.44;103181.53;5012845;28;20050;-81
2023/02/13 09:25:30;;;;;;;27.38;24.98;;;;;;;7.19;70.67;103176.75;5012925;28;20050;-81
2023/02/13 09:28:45;;;;;;;28.83;26.02;;;;;;;8.68;71.88;103173.09;5024464;28;20041;-83
2023/02/13 09:31:22;;;;;;;29.23;26.63;;;;;;;9.47;65.00;103167.00;4933699;29;20130;-83
2023/02/13 09:34:05;;;;;;;29.42;26.67;;;;;;;10.36;59.42;103172.09;4934066;29;20078;-83
2023/02/13 09:36:39;;;;;;;31.45;28.67;;;;;;;7.26;69.19;103159.41;4933781;29;20052;-82
2023/02/13 09:39:22;;;;;;;29.25;26.52;;;;;;;8.67;73.18;103155.53;4919862;29;20151;-82
2023/02/13 09:42:30;;;;;;;30.40;27.33;;;;;;;11.35;59.74;103140.34;4935392;29;20524;-82
2023/02/13 09:45:27;;;;;;;33.67;30.58;;;;;;;10.29;62.08;103146.09;4949199;29;20439;-83
2023/02/13 09:47:56;;;;;;;34.67;31.48;;;;;;;8.64;72.60;103138.09;4940428;29;20052;-84
2023/02/13 09:50:47;;;;;;;33.58;30.10;;;;;;;7.41;83.07;103133.53;4936915;29;20052;-83
2023/02/13 09:53:42;;;;;;;36.83;33.00;;;;;;;8.84;79.35;103130.22;4914430;29;20481;-83
2023/02/13 09:56:34;;;;;;;33.90;30.25;;;;;;;7.32;88.30;103122.78;4917065;29;20071;-83
2023/02/13 09:59:31;;;;;;;33.65;29.98;;;;;;;8.98;85.23;103121.84;4949657;29;20051;-83
2023/02/13 10:02:17;;;;;;;38.67;34.53;;;;;;;8.33;73.18;103112.56;4932621;29;20058;-83
2023/02/13 10:04:59;;;;;;;37.60;33.60;;;;;;;9.90;80.52;103108.16;4934225;29;20056;-83
2023/02/13 10:07:55;;;;;;;37.30;32.77;;;;;;;11.07;70.50;103099.66;4983296;28;20061;-83
2023/02/13 10:10:34;;;;;;;39.85;35.78;;;;;;;6.86;84.45;103096.56;5026311;28;20052;-81
2023/02/13 10:13:28;;;;;;;40.33;36.00;;;;;;;8.04;88.34;103092.06;5014335;28;20085;-83
2023/02/13 10:16:07;;;;;;;42.50;36.25;;;;;;;8.10;95.95;103088.91;5032141;28;20049;-83
2023/02/13 10:18:52;;;;;;;40.22;34.78;;;;;;;8.02;91.44;103080.78;5027726;28;20383;-82
2023/02/13 10:21:56;;;;;;;40.65;34.78;;;;;;;8.27;85.80;103075.06;5046309;28;20479;-81
2023/02/13 10:24:43;;;;;;;39.75;32.70;;;;;;;9.32;88.29;103071.94;5027996;28;20428;-83
2023/02/13 10:27:24;;;;;;;43.88;36.80;;;;;;;8.67;86.31;103065.44;5031957;28;20068;-82
2023/02/13 10:30:12;;;;;;;40.33;35.63;;;;;;;7.48;93.83;103065.97;5024271;28;20085;-82
2023/02/13 10:33:25;;;;;;;42.13;35.95;;;;;;;8.51;86.89;103049.25;5028032;28;20417;-81
2023/02/13 11:06:59;;;;;;;44.47;38.40;;;;;;;9.78;80.36;103019.91;4858099;29;20136;-82
2023/02/13 11:09:40;;;;;;;49.47;36.53;;;;;;;9.95;79.49;103023.59;4859397;29;20111;-82
2023/02/13 11:12:30;;;;;;;45.13;40.15;;;;;;;10.11;91.34;103019.50;4868871;29;20052;-82
2023/02/13 11:15:30;;;;;;;39.30;35.13;;;;;;;8.95;88.00;103019.59;4875368;29;20143;-82
2023/02/13 11:18:25;;;;;;;44.33;39.60;;;;;;;9.20;93.58;103016.50;4921264;29;20146;-82
2023/02/13 11:21:13;;;;;;;44.35;39.50;;;;;;;10.41;85.19;103005.09;5000275;28;20114;-82
2023/02/13 11:24:00;;;;;;;44.42;35.38;;;;;;;10.13;85.86;103006.91;5027576;28;20042;-83
2023/02/13 11:27:00;;;;;;;49.83;38.80;;;;;;;9.49;90.77;103000.56;5030976;28;20429;-82
2023/02/13 11:29:32;;;;;;;51.92;41.47;;;;;;;7.90;100.00;102995.34;5032747;28;20073;-82
2023/02/13 11:32:21;;;;;;;50.85;45.38;;;;;;;8.56;100.00;103004.63;5034939;28;20045;-82
2023/02/13 11:35:25;;;;;;;48.85;38.42;;;;;;;11.27;95.56;102994.78;5034803;28;20088;-82
2023/02/13 11:38:36;;;;;;;51.63;43.70;;;;;;;8.93;100.00;102992.41;5034305;28;20056;-81
2023/02/13 11:41:49;;;;;;;48.63;39.00;;;;;;;9.50;100.00;102984.53;5026326;28;20045;-82
2023/02/13 11:44:42;;;;;;;47.65;40.78;;;;;;;8.79;100.00;102976.06;5023836;28;20140;-82
2023/02/13 11:47:30;;;;;;;45.33;37.03;;;;;;;10.31;100.00;102971.47;5034486;28;20042;-83
2023/02/13 11:50:22;;;;;;;52.50;40.88;;;;;;;8.93;100.00;102973.84;5034170;28;20056;-82
2023/02/13 11:53:06;;;;;;;34.60;30.70;;;;;;;9.11;100.00;102958.06;5033220;28;20045;-83
2023/02/13 11:56:00;;;;;;;47.80;37.92;;;;;;;10.66;94.66;102961.03;5017924;28;20640;-81
2023/02/13 11:58:40;;;;;;;44.80;37.40;;;;;;;11.09;96.13;102962.91;5020259;28;20493;-82
2023/02/13 12:01:37;;;;;;;51.95;39.55;;;;;;;9.70;100.00;102952.59;5014786;28;20045;-83
2023/02/13 12:04:15;;;;;;;50.17;38.88;;;;;;;10.35;100.00;102947.25;5027199;28;20481;-82
2023/02/13 12:07:03;;;;;;;51.40;40.35;;;;;;;10.47;100.00;102949.56;5033191;28;20124;-82
2023/02/13 12:10:01;;;;;;;40.70;31.73;;;;;;;8.44;100.00;102950.94;5033621;28;20433;-81
2023/02/13 12:12:46;;;;;;;38.53;31.48;;;;;;;9.23;100.00;102937.53;5043484;28;20052;-82
2023/02/13 12:15:21;;;;;;;51.25;40.58;;;;;;;9.13;100.00;102929.59;5036834;28;20092;-82
2023/02/13 12:18:24;;;;;;;50.80;45.35;;;;;;;8.40;100.00;102942.44;5033666;28;20051;-82
2023/02/13 12:20:56;;;;;;;;;;;;;;;10.30;100.00;102932.63;5034155;28;20052;-82
2023/02/13 12:23:37;;;;;;;46.30;33.17;;;;;;;9.94;100.00;102931.69;5033982;28;20024;-82
2023/02/13 12:26:16;;;;;;;46.17;37.88;;;;;;;10.41;100.00;102938.69;5017041;28;20125;-81
2023/02/13 12:29:15;;;;;;;50.67;41.65;;;;;;;9.14;100.00;102928.63;5029337;28;20037;-81
2023/02/13 12:32:10;;;;;;;52.25;39.33;;;;;;;8.89;100.00;102929.19;5033604;28;20473;-82
2023/02/13 12:35:21;;;;;;;49.05;41.45;;;;;;;10.95;100.00;102921.75;5034150;28;20065;-81
2023/02/13 12:38:04;;;;;;;46.33;37.35;;;;;;;8.93;100.00;102930.59;5033863;28;20429;-83
2023/02/13 12:40:46;;;;;;;51.65;36.63;;;;;;;10.25;100.00;102923.41;5032066;28;20129;-82
2023/02/13 13:42:47;;;;;;;58.08;44.38;;;;;;;9.57;100.00;102889.28;4895257;29;20071;-82
2023/02/13 13:45:45;;;;;;;65.00;48.35;;;;;;;9.31;100.00;102884.59;4894939;29;20519;-82
2023/02/13 13:48:42;;;;;;;62.40;49.65;;;;;;;8.57;100.00;102895.06;4896941;28;20057;-82
2023/02/13 13:51:18;;;;;;;50.53;39.40;;;;;;;8.84;100.00;102876.63;5004900;28;20049;-82
2023/02/13 13:54:24;;;;;;;65.63;46.55;;;;;;;8.71;100.00;102886.69;5012336;28;20046;-82
2023/02/13 14:03:40;;;;;;;60.67;46.35;;;;;;;8.19;100.00;102867.53;5030155;28;20056;-83
2023/02/13 14:06:22;;;;;;;71.15;53.42;;;;;;;8.18;100.00;102866.72;5024471;28;20068;-82
2023/02/13 14:09:22;;;;;;;54.67;38.83;;;;;;;8.16;100.00;102859.88;5022333;28;20578;-82
2023/02/13 14:12:34;;;;;;;70.22;50.58;;;;;;;8.88;100.00;102858.63;5021317;28;20045;-83
2023/02/13 14:15:03;;;;;;;68.43;51.05;;;;;;;7.82;100.00;102852.31;5032477;28;20053;-83
2023/02/13 14:20:55;;;;;;;72.00;52.78;;;;;;;8.69;100.00;102862.16;5031997;28;20091;-82
2023/02/13 14:24:07;;;;;;;64.78;45.80;;;;;;;7.93;100.00;102860.13;5031338;28;20083;-83
2023/02/13 14:26:55;;;;;;;72.82;48.97;;;;;;;8.13;100.00;102858.34;5031900;28;20121;-82
2023/02/13 14:29:30;;;;;;;70.45;48.33;;;;;;;7.64;100.00;102854.75;5022891;28;20056;-82
2023/02/13 14:32:05;;;;;;;65.25;43.92;;;;;;;7.87;100.00;102851.91;5028050;28;20056;-82
2023/02/13 14:34:57;;;;;;;84.32;53.38;;;;;;;7.66;100.00;102857.28;5025328;28;20046;-82
2023/02/13 14:37:38;;;;;;;81.63;53.08;;;;;;;7.56;100.00;102854.59;5031529;28;20050;-83
2023/02/13 14:40:53;;;;;;;80.80;53.30;;;;;;;7.80;100.00;102863.00;5031984;28;20080;-82
2023/02/13 14:43:47;;;;;;;68.20;47.20;;;;;;;7.25;100.00;102856.41;5022860;28;20049;-82
2023/02/13 14:46:34;;;;;;;67.13;46.60;;;;;;;7.29;100.00;102860.44;5032149;28;20045;-83
2023/02/13 14:49:13;;;;;;;90.55;59.58;;;;;;;7.03;100.00;102865.34;5032389;28;20080;-82
2023/02/13 14:51:50;;;;;;;59.28;40.70;;;;;;;6.89;100.00;102862.03;5031946;28;20049;-83
2023/02/13 14:54:33;;;;;;;82.30;54.90;;;;;;;6.62;100.00;102856.44;5031164;28;20103;-83
2023/02/13 15:00:25;;;;;;;85.00;55.65;;;;;;;6.68;100.00;102847.16;5010337;28;20505;-82
2023/02/13 15:06:39;;;;;;;87.53;57.30;;;;;;;6.15;100.00;102843.56;5029496;28;20079;-82
2023/02/13 15:09:37;;;;;;;87.15;60.25;;;;;;;6.27;100.00;102846.16;5025960;28;20124;-82
2023/02/13 15:12:31;;;;;;;83.07;56.90;;;;;;;6.16;100.00;102847.03;5035558;28;20071;-82
2023/02/13 15:15:24;;;;;;;86.80;57.08;;;;;;;6.09;100.00;102844.06;5035368;28;20049;-82
2023/02/13 15:18:13;;;;;;;85.47;63.53;;;;;;;5.80;100.00;102846.34;5035719;28;20053;-82
2023/02/13 15:20:47;;;;;;;83.95;59.05;;;;;;;5.74;100.00;102844.22;5035743;28;20045;-83
2023/02/13 15:23:21;;;;;;;85.55;61.90;;;;;;;5.31;100.00;102837.06;5031605;28;20053;-82
2023/02/13 15:26:07;;;;;;;99.22;60.28;;;;;;;5.46;100.00;102837.66;5036009;28;20065;-82
2023/02/13 15:28:42;;;;;;;109.00;63.78;;;;;;;5.24;100.00;102831.44;5035508;28;20077;-83
2023/02/13 15:31:23;;;;;;;101.10;63.63;;;;;;;4.89;100.00;102836.75;5035704;28;20060;-82
2023/02/13 15:33:52;;;;;;;96.88;64.53;;;;;;;4.45;100.00;102821.69;5017655;28;20108;-82
2023/02/13 15:40:12;;;;;;;95.60;62.03;;;;;;;3.99;100.00;102835.59;5035784;28;20032;-82
2023/02/13 15:43:26;;;;;;;98.57;64.70;;;;;;;3.87;100.00;102837.31;5032407;28;20056;-82
2023/02/13 15:46:23;;;;;;;100.40;66.43;;;;;;;3.19;100.00;102836.81;5035261;28;20048;-82
2023/02/13 15:48:56;;;;;;;98.97;66.82;;;;;;;3.08;100.00;102836.69;5022182;28;20045;-82
2023/02/13 15:51:34;;;;;;;105.47;68.60;;;;;;;2.73;100.00;102831.22;5035301;28;20053;-82
2023/02/13 15:54:23;;;;;;;100.25;68.72;;;;;;;2.35;100.00;102836.38;5035273;28;20052;-82
2023/02/13 15:57:22;;;;;;;112.28;72.10;;;;;;;2.42;100.00;102840.28;5035508;28;20052;-82
2023/02/13 16:00:22;;;;;;;107.90;67.47;;;;;;;2.76;100.00;102844.13;5027345;28;20046;-82
2023/02/13 16:03:01;;;;;;;103.95;67.05;;;;;;;2.37;100.00;102845.00;5035411;28;20122;-83
2023/02/13 16:05:39;;;;;;;105.90;70.47;;;;;;;1.91;100.00;102845.34;5034749;28;20089;-82
2023/02/13 16:08:27;;;;;;;102.30;67.75;;;;;;;1.91;100.00;102855.81;5033801;28;20057;-82